Time,TemperatureF,DewpointF,PressureIn,WindDirection,WindDirectionDegrees,WindSpeedMPH,WindSpeedGustMPH,Humidity,HourlyPrecipIn,Conditions,Clouds,dailyrainin,SolarRadiationWatts/m^2,SoftwareType,DateUTC
2013-07-06 00:01:00,68.8,66.1,30.08,SW,221,0.0,0.0,91,0.00,,---,0.06,0.00,VWS V14.01,2013-07-06 04:01:00,
2013-07-06 00:02:00,68.8,66.1,30.08,SW,221,0.0,0.0,91,0.00,,---,0.06,0.00,VWS V14.01,2013-07-06 04:02:00,
2013-07-06 00:07:00,68.6,65.9,30.09,SW,221,0.0,0.0,91,0.00,,---,0.06,0.00,VWS V14.01,2013-07-06 04:07:00,
2013-07-06 00:12:00,68.5,66.1,30.09,SW,221,0.0,0.0,92,0.00,,---,0.00,0.00,VWS V14.01,2013-07-06 04:12:00,
2013-07-06 00:17:00,68.5,65.8,30.09,SW,221,0.0,0.0,91,0.00,,---,0.00,0.00,VWS V14.01,2013-07-06 04:17:00,
2013-07-06 00:22:00,68.4,65.7,30.09,SW,221,0.0,0.0,91,0.00,,---,0.00,0.00,VWS V14.01,2013-07-06 04:22:00,
2013-07-06 00:27:00,68.4,66.0,30.09,SW,221,0.0,0.0,92,0.00,,---,0.00,0.00,VWS V14.01,2013-07-06 04:27:00,
2013-07-06 00:32:00,68.4,66.0,30.09,SW,221,0.0,0.0,92,0.00,,---,0.00,0.00,VWS V14.01,2013-07-06 04:32:00,
2013-07-06 00:38:00,68.4,66.0,30.08,SW,221,0.0,0.0,92,0.00,,---,0.00,0.00,VWS V14.01,2013-07-06 04:38:00,
2013-07-06 00:43:00,68.4,66.0,30.08,SW,221,0.0,0.0,92,0.00,,---,0.00,0.00,VWS V14.01,2013-07-06 04:43:00,
2013-07-06 00:48:00,68.4,66.0,30.08,SW,221,0.0,0.0,92,0.00,,---,0.00,0.00,VWS V14.01,2013-07-06 04:48:00,
2013-07-06 00:53:00,68.4,66.0,30.09,SW,221,0.0,0.0,92,0.00,,---,0.00,0.00,VWS V14.01,2013-07-06 04:53:00,
2013-07-06 00:58:00,68.4,66.0,30.08,SW,221,0.0,0.0,92,0.00,,---,0.00,0.00,VWS V14.01,2013-07-06 04:58:00,
2013-07-06 01:03:00,68.4,66.0,30.08,SW,221,0.0,0.0,92,0.00,,---,0.00,0.00,VWS V14.01,2013-07-06 05:03:00,
2013-07-06 01:08:00,68.4,66.0,30.08,SW,221,0.0,0.0,92,0.00,,---,0.00,0.00,VWS V14.01,2013-07-06 05:08:00,
2013-07-06 01:13:00,68.3,65.9,30.08,SW,221,0.0,0.0,92,0.00,,---,0.00,0.00,VWS V14.01,2013-07-06 05:13:00,
2013-07-06 01:18:00,68.3,65.9,30.08,SW,221,0.0,0.0,92,0.00,,---,0.00,0.00,VWS V14.01,2013-07-06 05:18:00,
2013-07-06 01:23:00,68.3,65.9,30.07,SW,221,0.0,1.0,92,0.00,,---,0.00,0.00,VWS V14.01,2013-07-06 05:23:00,
2013-07-06 01:29:00,68.4,66.0,30.07,SW,221,0.0,0.0,92,0.00,,---,0.00,0.00,VWS V14.01,2013-07-06 05:29:00,
2013-07-06 01:34:00,68.5,66.1,30.07,SW,221,0.0,0.0,92,0.00,,---,0.00,0.00,VWS V14.01,2013-07-06 05:34:00,
2013-07-06 01:39:00,68.6,66.2,30.07,SW,221,0.0,0.0,92,0.00,,---,0.00,0.00,VWS V14.01,2013-07-06 05:39:00,
2013-07-06 01:44:00,68.6,66.2,30.07,SW,221,0.0,0.0,92,0.00,,---,0.00,0.00,VWS V14.01,2013-07-06 05:44:00,
2013-07-06 01:49:00,68.6,66.2,30.07,SW,221,0.0,0.0,92,0.00,,---,0.00,0.00,VWS V14.01,2013-07-06 05:49:00,
2013-07-06 01:54:00,68.6,66.2,30.08,SW,221,0.0,0.0,92,0.00,,---,0.00,0.00,VWS V14.01,2013-07-06 05:54:00,
2013-07-06 01:59:00,68.8,66.4,30.08,SW,221,0.0,0.0,92,0.00,,---,0.00,0.00,VWS V14.01,2013-07-06 05:59:00,
2013-07-06 02:04:00,68.8,66.7,30.08,SW,221,0.0,0.0,93,0.00,,---,0.00,0.00,VWS V14.01,2013-07-06 06:04:00,
2013-07-06 02:09:00,68.9,66.5,30.07,SW,221,0.0,0.0,92,0.00,,---,0.00,0.00,VWS V14.01,2013-07-06 06:09:00,
2013-07-06 02:14:00,68.8,66.7,30.08,SW,221,0.0,0.0,93,0.00,,---,0.00,0.00,VWS V14.01,2013-07-06 06:14:00,
2013-07-06 02:20:00,68.8,66.7,30.07,SW,221,0.0,0.0,93,0.00,,---,0.00,0.00,VWS V14.01,2013-07-06 06:20:00,
2013-07-06 02:25:00,68.8,66.7,30.08,SW,221,0.0,0.0,93,0.00,,---,0.00,0.00,VWS V14.01,2013-07-06 06:25:00,
2013-07-06 02:30:00,68.8,66.7,30.08,SW,221,0.0,0.0,93,0.00,,---,0.00,0.00,VWS V14.01,2013-07-06 06:30:00,
2013-07-06 02:35:00,68.8,66.7,30.07,SW,221,0.0,0.0,93,0.00,,---,0.00,0.00,VWS V14.01,2013-07-06 06:35:00,
2013-07-06 02:40:00,68.8,67.0,30.07,SW,221,0.0,0.0,94,0.00,,---,0.00,0.00,VWS V14.01,2013-07-06 06:40:00,
2013-07-06 02:45:00,68.8,67.0,30.07,SW,221,0.0,0.0,94,0.01,,---,0.01,0.00,VWS V14.01,2013-07-06 06:45:00,
2013-07-06 02:50:00,68.7,66.9,30.07,SW,221,0.0,0.0,94,0.01,,---,0.01,0.00,VWS V14.01,2013-07-06 06:50:00,
2013-07-06 02:55:00,68.6,66.8,30.08,SW,221,0.0,0.0,94,0.01,,---,0.01,0.00,VWS V14.01,2013-07-06 06:55:00,
2013-07-06 03:00:00,68.5,66.7,30.07,SW,221,0.0,0.0,94,0.02,,---,0.02,0.00,VWS V14.01,2013-07-06 07:00:00,
2013-07-06 03:05:00,68.5,67.0,30.07,SW,221,0.0,0.0,95,0.03,,---,0.03,0.00,VWS V14.01,2013-07-06 07:05:00,
2013-07-06 03:11:00,68.4,66.9,30.08,SW,221,0.0,0.0,95,0.03,,---,0.03,0.00,VWS V14.01,2013-07-06 07:11:00,
2013-07-06 03:16:00,68.3,66.8,30.07,SW,221,0.0,0.0,95,0.04,,---,0.04,0.00,VWS V14.01,2013-07-06 07:16:00,
2013-07-06 03:21:00,68.2,66.7,30.07,SW,221,0.0,0.0,95,0.05,,---,0.05,0.00,VWS V14.01,2013-07-06 07:21:00,
2013-07-06 03:26:00,68.2,67.0,30.07,SW,221,0.0,0.0,96,0.06,,---,0.06,0.00,VWS V14.01,2013-07-06 07:26:00,
2013-07-06 03:31:00,68.2,67.0,30.07,SW,221,0.0,0.0,96,0.06,,---,0.06,0.00,VWS V14.01,2013-07-06 07:31:00,
2013-07-06 03:36:00,68.1,66.9,30.07,SW,221,0.0,0.0,96,0.07,,---,0.07,0.00,VWS V14.01,2013-07-06 07:36:00,
2013-07-06 03:41:00,68.1,66.9,30.07,SW,221,0.0,0.0,96,0.08,,---,0.08,0.00,VWS V14.01,2013-07-06 07:41:00,
2013-07-06 03:46:00,68.1,66.9,30.06,SW,221,0.0,0.0,96,0.08,,---,0.08,0.00,VWS V14.01,2013-07-06 07:46:00,
2013-07-06 03:51:00,68.1,66.9,30.06,SW,221,0.0,0.0,96,0.07,,---,0.08,0.00,VWS V14.01,2013-07-06 07:51:00,
2013-07-06 03:57:00,68.0,66.8,30.07,SW,221,0.0,0.0,96,0.07,,---,0.08,0.00,VWS V14.01,2013-07-06 07:57:00,
2013-07-06 04:02:00,68.0,66.8,30.07,SW,221,0.0,0.0,96,0.06,,---,0.08,0.00,VWS V14.01,2013-07-06 08:02:00,
2013-07-06 04:07:00,67.9,66.7,30.07,SW,221,0.0,0.0,96,0.07,,---,0.09,0.00,VWS V14.01,2013-07-06 08:07:00,
2013-07-06 04:12:00,67.8,66.6,30.07,SW,221,0.0,0.0,96,0.06,,---,0.09,0.00,VWS V14.01,2013-07-06 08:12:00,
2013-07-06 04:17:00,67.7,66.5,30.07,SW,221,0.0,0.0,96,0.06,,---,0.09,0.00,VWS V14.01,2013-07-06 08:17:00,
2013-07-06 04:22:00,67.7,66.5,30.07,SW,221,0.0,0.0,96,0.05,,---,0.09,0.00,VWS V14.01,2013-07-06 08:22:00,
2013-07-06 04:27:00,67.7,66.8,30.07,SW,221,0.0,0.0,97,0.05,,---,0.09,0.00,VWS V14.01,2013-07-06 08:27:00,
2013-07-06 04:32:00,67.8,66.9,30.08,SW,221,0.0,0.0,97,0.03,,---,0.09,0.00,VWS V14.01,2013-07-06 08:32:00,
2013-07-06 04:38:00,67.8,66.9,30.07,SW,221,0.0,0.0,97,0.03,,---,0.09,0.00,VWS V14.01,2013-07-06 08:38:00,
2013-07-06 04:43:00,67.8,66.9,30.06,SW,221,0.0,0.0,97,0.02,,---,0.09,0.00,VWS V14.01,2013-07-06 08:43:00,
2013-07-06 04:48:00,67.8,66.9,30.06,SW,221,0.0,0.0,97,0.01,,---,0.09,0.00,VWS V14.01,2013-07-06 08:48:00,
2013-07-06 04:54:00,67.9,67.0,30.06,SW,221,0.0,0.0,97,0.01,,---,0.09,0.00,VWS V14.01,2013-07-06 08:54:00,
2013-07-06 04:59:00,67.9,67.0,30.06,SW,221,0.0,0.0,97,0.01,,---,0.09,0.00,VWS V14.01,2013-07-06 08:59:00,
2013-07-06 05:04:00,67.9,67.0,30.06,SW,221,0.0,0.0,97,0.01,,---,0.09,0.00,VWS V14.01,2013-07-06 09:04:00,
2013-07-06 05:09:00,67.9,67.0,30.06,SW,221,0.0,0.0,97,0.00,,---,0.09,0.00,VWS V14.01,2013-07-06 09:09:00,
2013-07-06 05:14:00,67.9,67.0,30.06,SW,221,0.0,1.0,97,0.01,,---,0.10,0.00,VWS V14.01,2013-07-06 09:14:00,
2013-07-06 05:19:00,67.8,66.9,30.05,SW,221,0.0,0.0,97,0.01,,---,0.10,0.00,VWS V14.01,2013-07-06 09:19:00,
2013-07-06 05:24:00,67.8,66.9,30.06,SW,221,0.0,1.0,97,0.01,,---,0.10,0.00,VWS V14.01,2013-07-06 09:24:00,
2013-07-06 05:29:00,67.6,66.7,30.06,SW,221,0.0,0.0,97,0.01,,---,0.10,0.00,VWS V14.01,2013-07-06 09:29:00,
2013-07-06 05:34:00,67.6,66.7,30.06,SW,221,0.0,0.0,97,0.01,,---,0.10,0.00,VWS V14.01,2013-07-06 09:34:00,
2013-07-06 05:39:00,67.4,66.5,30.06,SW,221,0.0,0.0,97,0.01,,---,0.10,0.00,VWS V14.01,2013-07-06 09:39:00,
2013-07-06 05:45:00,67.3,66.4,30.06,SW,221,0.0,0.0,97,0.01,,---,0.10,0.00,VWS V14.01,2013-07-06 09:45:00,
2013-07-06 05:50:00,67.2,66.3,30.06,SW,221,0.0,0.0,97,0.01,,---,0.10,0.00,VWS V14.01,2013-07-06 09:50:00,
2013-07-06 05:55:00,67.0,66.1,30.06,SW,221,0.0,0.0,97,0.01,,---,0.10,0.00,VWS V14.01,2013-07-06 09:55:00,
2013-07-06 06:00:00,66.7,65.8,30.06,SW,221,0.0,0.0,97,0.01,,---,0.10,0.00,VWS V14.01,2013-07-06 10:00:00,
2013-07-06 06:05:00,66.6,65.7,30.06,SW,221,0.0,0.0,97,0.01,,---,0.10,0.00,VWS V14.01,2013-07-06 10:05:00,
2013-07-06 06:10:00,66.6,65.7,30.06,SW,221,0.0,0.0,97,0.01,,---,0.10,0.00,VWS V14.01,2013-07-06 10:10:00,
2013-07-06 06:15:00,66.6,65.7,30.06,SW,221,0.0,0.0,97,0.01,,---,0.10,5.00,VWS V14.01,2013-07-06 10:15:00,
2013-07-06 06:20:00,66.6,65.7,30.06,SW,221,0.0,0.0,97,0.00,,---,0.10,7.00,VWS V14.01,2013-07-06 10:20:00,
2013-07-06 06:26:00,66.6,65.7,30.06,SW,221,0.0,0.0,97,0.00,,---,0.10,11.00,VWS V14.01,2013-07-06 10:26:00,
2013-07-06 06:31:00,66.6,65.7,30.06,SW,221,0.0,0.0,97,0.00,,---,0.10,14.00,VWS V14.01,2013-07-06 10:31:00,
2013-07-06 06:36:00,66.6,66.0,30.06,SW,221,0.0,0.0,98,0.00,,---,0.10,18.00,VWS V14.01,2013-07-06 10:36:00,
2013-07-06 06:41:00,66.8,66.2,30.06,SW,221,0.0,0.0,98,0.00,,---,0.10,23.00,VWS V14.01,2013-07-06 10:41:00,
2013-07-06 06:46:00,66.9,66.3,30.06,SW,221,0.0,0.0,98,0.00,,---,0.10,26.00,VWS V14.01,2013-07-06 10:46:00,
2013-07-06 06:51:00,67.0,66.4,30.06,SW,221,0.0,0.0,98,0.00,,---,0.10,30.00,VWS V14.01,2013-07-06 10:51:00,
2013-07-06 06:56:00,67.1,66.5,30.06,SW,221,0.0,0.0,98,0.00,,---,0.10,37.00,VWS V14.01,2013-07-06 10:56:00,
2013-07-06 07:01:00,67.3,66.7,30.06,SW,221,0.0,0.0,98,0.00,,---,0.10,39.00,VWS V14.01,2013-07-06 11:01:00,
2013-07-06 07:06:00,67.5,66.9,30.06,SW,221,0.0,0.0,98,0.00,,---,0.10,40.00,VWS V14.01,2013-07-06 11:06:00,
2013-07-06 07:11:00,67.7,67.1,30.07,SW,221,0.0,0.0,98,0.00,,---,0.10,54.00,VWS V14.01,2013-07-06 11:11:00,
2013-07-06 07:17:00,68.1,67.5,30.07,SW,221,2.0,2.0,98,0.00,,---,0.10,67.00,VWS V14.01,2013-07-06 11:17:00,
2013-07-06 07:22:00,68.5,67.9,30.07,SW,221,0.0,0.0,98,0.00,,---,0.10,72.00,VWS V14.01,2013-07-06 11:22:00,
2013-07-06 07:27:00,68.9,68.6,30.07,SW,221,0.0,1.0,99,0.00,,---,0.10,72.00,VWS V14.01,2013-07-06 11:27:00,
2013-07-06 07:32:00,69.0,68.4,30.07,SW,221,0.0,0.0,98,0.00,,---,0.10,69.00,VWS V14.01,2013-07-06 11:32:00,
2013-07-06 07:37:00,69.2,68.9,30.07,SW,221,0.0,0.0,99,0.00,,---,0.10,65.00,VWS V14.01,2013-07-06 11:37:00,
2013-07-06 07:42:00,69.4,69.1,30.06,SW,221,0.0,0.0,99,0.00,,---,0.10,65.00,VWS V14.01,2013-07-06 11:42:00,
2013-07-06 07:47:00,69.6,69.0,30.07,SW,221,0.0,0.0,98,0.00,,---,0.10,63.00,VWS V14.01,2013-07-06 11:47:00,
2013-07-06 07:52:00,69.5,68.9,30.07,SW,221,0.0,0.0,98,0.00,,---,0.10,60.00,VWS V14.01,2013-07-06 11:52:00,
2013-07-06 07:58:00,69.7,69.1,30.07,SW,221,0.0,0.0,98,0.00,,---,0.10,63.00,VWS V14.01,2013-07-06 11:58:00,
2013-07-06 08:03:00,69.9,69.3,30.07,SW,221,0.0,0.0,98,0.00,,---,0.10,88.00,VWS V14.01,2013-07-06 12:03:00,
2013-07-06 08:08:00,70.3,69.7,30.07,SW,221,0.0,0.0,98,0.00,,---,0.10,93.00,VWS V14.01,2013-07-06 12:08:00,
2013-07-06 08:13:00,70.6,70.0,30.07,SW,221,0.0,0.0,98,0.00,,---,0.10,114.00,VWS V14.01,2013-07-06 12:13:00,
2013-07-06 08:18:00,71.1,70.8,30.07,SW,221,0.0,0.0,99,0.00,,---,0.10,134.00,VWS V14.01,2013-07-06 12:18:00,
2013-07-06 08:23:00,71.6,71.0,30.07,SW,221,0.0,0.0,98,0.00,,---,0.10,130.00,VWS V14.01,2013-07-06 12:23:00,
2013-07-06 08:28:00,71.7,71.1,30.07,SW,221,0.0,1.0,98,0.00,,---,0.10,220.00,VWS V14.01,2013-07-06 12:28:00,
2013-07-06 08:33:00,71.9,71.3,30.07,SW,221,0.0,0.0,98,0.00,,---,0.10,130.00,VWS V14.01,2013-07-06 12:33:00,
2013-07-06 08:38:00,72.0,71.1,30.07,SW,221,0.0,0.0,97,0.00,,---,0.10,174.00,VWS V14.01,2013-07-06 12:38:00,
2013-07-06 08:44:00,72.3,71.4,30.07,SW,221,0.0,0.0,97,0.00,,---,0.10,230.00,VWS V14.01,2013-07-06 12:44:00,
2013-07-06 08:49:00,72.6,71.4,30.07,SW,221,0.0,0.0,96,0.00,,---,0.10,232.00,VWS V14.01,2013-07-06 12:49:00,
2013-07-06 08:54:00,72.9,71.7,30.07,SW,221,0.0,1.0,96,0.00,,---,0.10,302.00,VWS V14.01,2013-07-06 12:54:00,
2013-07-06 08:59:00,73.0,71.8,30.08,SW,221,0.0,0.0,96,0.00,,---,0.10,482.00,VWS V14.01,2013-07-06 12:59:00,
2013-07-06 09:04:00,73.6,72.1,30.07,SW,223,0.0,2.0,95,0.00,,---,0.10,519.00,VWS V14.01,2013-07-06 13:04:00,
2013-07-06 09:09:00,74.6,73.1,30.08,SW,223,0.0,0.0,95,0.00,,---,0.10,527.00,VWS V14.01,2013-07-06 13:09:00,
2013-07-06 09:14:00,75.1,72.0,30.07,ENE,59,0.0,3.0,90,0.00,,---,0.10,538.00,VWS V14.01,2013-07-06 13:14:00,
2013-07-06 09:19:00,75.7,72.9,30.07,ENE,59,1.0,1.0,91,0.00,,---,0.10,540.00,VWS V14.01,2013-07-06 13:19:00,
2013-07-06 09:24:00,76.4,73.2,30.07,ENE,61,0.0,3.0,90,0.00,,---,0.10,548.00,VWS V14.01,2013-07-06 13:24:00,
2013-07-06 09:29:00,76.9,73.1,30.08,ENE,61,0.0,1.0,88,0.00,,---,0.10,563.00,VWS V14.01,2013-07-06 13:29:00,
2013-07-06 09:35:00,77.3,72.4,30.07,ENE,61,0.0,1.0,85,0.00,,---,0.10,573.00,VWS V14.01,2013-07-06 13:35:00,
2013-07-06 09:40:00,77.7,72.8,30.07,NNE,30,0.0,2.0,85,0.00,,---,0.10,596.00,VWS V14.01,2013-07-06 13:40:00,
2013-07-06 09:45:00,78.0,72.8,30.07,NNE,30,0.0,2.0,84,0.00,,---,0.10,575.00,VWS V14.01,2013-07-06 13:45:00,
2013-07-06 09:50:00,78.3,72.0,30.07,NNE,30,1.0,2.0,81,0.00,,---,0.10,364.00,VWS V14.01,2013-07-06 13:50:00,
2013-07-06 09:55:00,78.2,72.3,30.07,NNE,30,0.0,2.0,82,0.00,,---,0.10,178.00,VWS V14.01,2013-07-06 13:55:00,
2013-07-06 10:00:00,78.0,72.4,30.07,NNE,30,0.0,0.0,83,0.00,,---,0.10,330.00,VWS V14.01,2013-07-06 14:00:00,
2013-07-06 10:05:00,78.0,72.4,30.07,NE,35,0.0,3.0,83,0.00,,---,0.10,295.00,VWS V14.01,2013-07-06 14:05:00,
2013-07-06 10:10:00,78.4,73.5,30.07,NE,35,0.0,1.0,85,0.00,,---,0.10,582.00,VWS V14.01,2013-07-06 14:10:00,
2013-07-06 10:15:00,78.8,73.2,30.07,NE,35,0.0,1.0,83,0.00,,---,0.10,643.00,VWS V14.01,2013-07-06 14:15:00,
2013-07-06 10:20:00,79.4,74.2,30.07,NE,38,0.0,1.0,84,0.00,,---,0.10,664.00,VWS V14.01,2013-07-06 14:20:00,
2013-07-06 10:26:00,79.9,73.2,30.07,NNE,32,0.0,4.0,80,0.00,,---,0.10,680.00,VWS V14.01,2013-07-06 14:26:00,
2013-07-06 10:31:00,80.3,72.4,30.07,NE,40,1.0,2.0,77,0.00,,---,0.10,696.00,VWS V14.01,2013-07-06 14:31:00,
2013-07-06 10:36:00,80.7,75.1,30.07,NNE,26,1.0,3.0,83,0.00,,---,0.10,823.00,VWS V14.01,2013-07-06 14:36:00,
2013-07-06 10:41:00,81.1,74.7,30.07,NNE,18,0.0,2.0,81,0.00,,---,0.10,772.00,VWS V14.01,2013-07-06 14:41:00,
2013-07-06 10:46:00,81.3,73.0,30.07,NW,318,0.0,3.0,76,0.00,,---,0.10,867.00,VWS V14.01,2013-07-06 14:46:00,
2013-07-06 10:51:00,81.2,72.1,30.07,NW,321,0.0,4.0,74,0.00,,---,0.10,891.00,VWS V14.01,2013-07-06 14:51:00,
2013-07-06 10:56:00,81.3,72.6,30.07,West,281,0.0,4.0,75,0.00,,---,0.10,773.00,VWS V14.01,2013-07-06 14:56:00,
2013-07-06 11:01:00,81.3,72.2,30.07,WSW,258,1.0,3.0,74,0.00,,---,0.10,626.00,VWS V14.01,2013-07-06 15:01:00,
2013-07-06 11:06:00,81.0,71.5,30.07,NE,40,0.0,4.0,73,0.00,,---,0.10,264.00,VWS V14.01,2013-07-06 15:06:00,
2013-07-06 11:12:00,80.4,70.6,30.07,NNW,335,2.0,4.0,72,0.00,,---,0.10,877.00,VWS V14.01,2013-07-06 15:12:00,
2013-07-06 11:17:00,80.4,72.5,30.07,SE,130,0.0,10.0,77,0.00,,---,0.10,350.00,VWS V14.01,2013-07-06 15:17:00,
2013-07-06 11:22:00,80.3,71.7,30.07,NNE,32,0.0,1.0,75,0.00,,---,0.10,301.00,VWS V14.01,2013-07-06 15:22:00,
2013-07-06 11:27:00,80.2,71.9,30.07,NNE,31,0.0,2.0,76,0.00,,---,0.10,278.00,VWS V14.01,2013-07-06 15:27:00,
2013-07-06 11:32:00,79.9,71.3,30.07,West,275,0.0,3.0,75,0.00,,---,0.10,316.00,VWS V14.01,2013-07-06 15:32:00,
2013-07-06 11:37:00,79.8,71.6,30.07,West,276,0.0,3.0,76,0.00,,---,0.10,404.00,VWS V14.01,2013-07-06 15:37:00,
2013-07-06 11:42:00,80.2,70.8,30.07,NW,311,2.0,4.0,73,0.00,,---,0.10,932.00,VWS V14.01,2013-07-06 15:42:00,
2013-07-06 11:47:00,80.3,70.5,30.06,WNW,296,0.0,4.0,72,0.00,,---,0.10,480.00,VWS V14.01,2013-07-06 15:47:00,
2013-07-06 11:53:00,80.3,70.9,30.07,NW,311,2.0,3.0,73,0.00,,---,0.10,499.00,VWS V14.01,2013-07-06 15:53:00,
2013-07-06 11:58:00,80.5,71.1,30.07,West,271,1.0,5.0,73,0.00,,---,0.10,599.00,VWS V14.01,2013-07-06 15:58:00,
2013-07-06 12:03:00,80.5,69.8,30.07,West,271,0.0,2.0,70,0.00,,---,0.10,343.00,VWS V14.01,2013-07-06 16:03:00,
2013-07-06 12:09:00,80.5,69.8,30.06,West,268,2.0,2.0,70,0.00,,---,0.10,457.00,VWS V14.01,2013-07-06 16:09:00,
2013-07-06 12:14:00,80.7,70.0,30.06,West,267,1.0,2.0,70,0.00,,---,0.10,816.00,VWS V14.01,2013-07-06 16:14:00,
2013-07-06 12:19:00,81.3,70.6,30.06,NW,310,3.0,5.0,70,0.00,,---,0.10,816.00,VWS V14.01,2013-07-06 16:19:00,
2013-07-06 12:25:00,81.6,70.0,30.06,West,272,1.0,5.0,68,0.00,,---,0.10,1139.00,VWS V14.01,2013-07-06 16:25:00,
2013-07-06 12:30:00,81.8,70.2,30.06,NW,306,0.0,4.0,68,0.00,,---,0.10,715.00,VWS V14.01,2013-07-06 16:30:00,
2013-07-06 12:36:00,82.0,69.5,30.06,South,190,1.0,4.0,66,0.00,,---,0.10,448.00,VWS V14.01,2013-07-06 16:36:00,
2013-07-06 12:41:00,81.9,69.4,30.05,NW,321,0.0,4.0,66,0.00,,---,0.10,396.00,VWS V14.01,2013-07-06 16:41:00,
2013-07-06 12:46:00,81.2,69.2,30.05,WNW,292,0.0,9.0,67,0.00,,---,0.10,359.00,VWS V14.01,2013-07-06 16:46:00,
2013-07-06 12:51:00,80.8,69.7,30.05,WNW,292,1.0,2.0,69,0.00,,---,0.10,267.00,VWS V14.01,2013-07-06 16:51:00,
2013-07-06 12:56:00,80.3,68.8,30.05,WNW,300,0.0,4.0,68,0.00,,---,0.10,237.00,VWS V14.01,2013-07-06 16:56:00,
2013-07-06 13:01:00,80.0,69.8,30.05,WNW,284,0.0,2.0,71,0.00,,---,0.10,362.00,VWS V14.01,2013-07-06 17:01:00,
2013-07-06 13:07:00,79.9,70.5,30.05,West,278,1.0,2.0,73,0.00,,---,0.10,322.00,VWS V14.01,2013-07-06 17:07:00,
2013-07-06 13:13:00,80.0,71.4,30.05,West,276,0.0,2.0,75,0.00,,---,0.10,348.00,VWS V14.01,2013-07-06 17:13:00,
2013-07-06 13:18:00,79.9,70.9,30.05,West,276,0.0,2.0,74,0.00,,---,0.10,427.00,VWS V14.01,2013-07-06 17:18:00,
2013-07-06 13:24:00,80.2,70.8,30.05,SW,228,0.0,1.0,73,0.00,,---,0.10,457.00,VWS V14.01,2013-07-06 17:24:00,
2013-07-06 13:29:00,80.6,70.3,30.05,SW,229,0.0,0.0,71,0.00,,---,0.10,360.00,VWS V14.01,2013-07-06 17:29:00,
2013-07-06 13:34:00,80.9,70.6,30.04,SW,230,0.0,2.0,71,0.00,,---,0.10,403.00,VWS V14.01,2013-07-06 17:34:00,
2013-07-06 13:39:00,81.1,70.8,30.04,SW,230,0.0,0.0,71,0.00,,---,0.10,346.00,VWS V14.01,2013-07-06 17:39:00,
2013-07-06 13:44:00,81.1,70.8,30.04,WSW,249,1.0,2.0,71,0.00,,---,0.10,278.00,VWS V14.01,2013-07-06 17:44:00,
2013-07-06 13:50:00,81.0,71.1,30.05,WSW,249,0.0,1.0,72,0.00,,---,0.10,339.00,VWS V14.01,2013-07-06 17:50:00,
2013-07-06 13:56:00,80.9,70.2,30.05,WSW,249,0.0,1.0,70,0.00,,---,0.10,348.00,VWS V14.01,2013-07-06 17:56:00,
2013-07-06 14:03:00,80.8,72.1,30.04,WNW,300,0.0,2.0,75,0.00,,---,0.10,429.00,VWS V14.01,2013-07-06 18:03:00,
2013-07-06 14:08:00,80.9,70.6,30.04,WNW,300,0.0,2.0,71,0.00,,---,0.10,531.00,VWS V14.01,2013-07-06 18:08:00,
2013-07-06 14:14:00,81.4,71.9,30.03,WNW,300,0.0,3.0,73,0.00,,---,0.10,531.00,VWS V14.01,2013-07-06 18:14:00,
2013-07-06 14:20:00,82.1,71.3,30.03,West,275,2.0,2.0,70,0.00,,---,0.10,1020.00,VWS V14.01,2013-07-06 18:20:00,
2013-07-06 14:25:00,82.6,70.5,30.03,NW,322,0.0,3.0,67,0.00,,---,0.10,1014.00,VWS V14.01,2013-07-06 18:25:00,
2013-07-06 14:30:00,83.0,71.4,30.02,WNW,290,2.0,4.0,68,0.00,,---,0.10,1007.00,VWS V14.01,2013-07-06 18:30:00,
2013-07-06 14:35:00,83.3,70.3,30.02,NW,325,2.0,4.0,65,0.00,,---,0.10,1013.00,VWS V14.01,2013-07-06 18:35:00,
2013-07-06 14:41:00,83.3,69.9,30.02,WNW,294,0.0,3.0,64,0.00,,---,0.10,1021.00,VWS V14.01,2013-07-06 18:41:00,
2013-07-06 14:46:00,83.5,70.9,30.02,NNW,338,2.0,3.0,66,0.00,,---,0.10,1025.00,VWS V14.01,2013-07-06 18:46:00,
2013-07-06 14:51:00,83.6,70.6,30.01,NW,322,0.0,6.0,65,0.00,,---,0.10,1035.00,VWS V14.01,2013-07-06 18:51:00,
2013-07-06 14:57:00,83.9,72.7,30.01,NW,310,2.0,6.0,69,0.00,,---,0.10,1000.00,VWS V14.01,2013-07-06 18:57:00,
2013-07-06 15:02:00,84.1,70.2,30.00,NW,324,0.0,3.0,63,0.00,,---,0.10,953.00,VWS V14.01,2013-07-06 19:02:00,
2013-07-06 15:07:00,84.5,71.9,30.00,NW,321,3.0,5.0,66,0.00,,---,0.10,512.00,VWS V14.01,2013-07-06 19:07:00,
2013-07-06 15:12:00,84.5,70.5,30.00,NW,311,1.0,7.0,63,0.00,,---,0.10,1083.00,VWS V14.01,2013-07-06 19:12:00,
2013-07-06 15:18:00,85.2,72.1,30.00,NW,315,1.0,7.0,65,0.00,,---,0.10,1169.00,VWS V14.01,2013-07-06 19:18:00,
2013-07-06 15:24:00,85.4,71.8,30.00,WSW,243,3.0,6.0,64,0.00,,---,0.10,380.00,VWS V14.01,2013-07-06 19:24:00,
2013-07-06 15:29:00,85.2,72.6,30.00,WNW,303,0.0,1.0,66,0.00,,---,0.10,1130.00,VWS V14.01,2013-07-06 19:29:00,
2013-07-06 15:34:00,85.6,71.6,30.00,SW,229,0.0,6.0,63,0.00,,---,0.10,353.00,VWS V14.01,2013-07-06 19:34:00,
2013-07-06 15:39:00,85.8,71.8,29.99,WNW,297,0.0,1.0,63,0.00,,---,0.10,1023.00,VWS V14.01,2013-07-06 19:39:00,
2013-07-06 15:45:00,85.9,70.9,29.99,WNW,294,2.0,7.0,61,0.00,,---,0.10,1005.00,VWS V14.01,2013-07-06 19:45:00,
2013-07-06 15:50:00,85.8,71.8,29.99,NW,323,1.0,6.0,63,0.00,,---,0.10,969.00,VWS V14.01,2013-07-06 19:50:00,
2013-07-06 15:55:00,85.9,73.2,29.99,West,272,1.0,6.0,66,0.00,,---,0.10,1007.00,VWS V14.01,2013-07-06 19:55:00,
2013-07-06 16:01:00,85.8,71.8,29.99,West,267,1.0,3.0,63,0.00,,---,0.10,991.00,VWS V14.01,2013-07-06 20:01:00,
2013-07-06 16:06:00,85.8,74.0,29.99,SW,223,1.0,3.0,68,0.00,,---,0.10,912.00,VWS V14.01,2013-07-06 20:06:00,
2013-07-06 16:11:00,86.2,73.5,29.99,SW,223,0.0,1.0,66,0.00,,---,0.10,900.00,VWS V14.01,2013-07-06 20:11:00,
2013-07-06 16:18:00,86.7,73.5,29.98,NE,38,0.0,2.0,65,0.00,,---,0.10,891.00,VWS V14.01,2013-07-06 20:18:00,
2013-07-06 16:23:00,87.2,73.6,29.98,NE,38,0.0,2.0,64,0.00,,---,0.10,889.00,VWS V14.01,2013-07-06 20:23:00,
2013-07-06 16:28:00,87.6,74.4,29.98,NE,41,0.0,2.0,65,0.00,,---,0.10,835.00,VWS V14.01,2013-07-06 20:28:00,
2013-07-06 16:34:00,87.7,74.9,29.98,NE,46,0.0,1.0,66,0.00,,---,0.10,171.00,VWS V14.01,2013-07-06 20:34:00,
2013-07-06 16:39:00,87.2,74.0,29.98,NE,46,0.0,1.0,65,0.00,,---,0.10,895.00,VWS V14.01,2013-07-06 20:39:00,
2013-07-06 16:44:00,87.2,76.7,29.97,NE,46,0.0,1.0,71,0.00,,---,0.10,831.00,VWS V14.01,2013-07-06 20:44:00,
2013-07-06 16:50:00,87.5,73.8,29.97,NE,44,0.0,1.0,64,0.00,,---,0.10,689.00,VWS V14.01,2013-07-06 20:50:00,
2013-07-06 16:56:00,87.8,73.6,29.97,NE,44,0.0,1.0,63,0.00,,---,0.10,200.00,VWS V14.01,2013-07-06 20:56:00,
2013-07-06 17:01:00,87.4,74.7,29.97,NE,44,0.0,1.0,66,0.00,,---,0.10,123.00,VWS V14.01,2013-07-06 21:01:00,
2013-07-06 17:06:00,86.2,74.0,29.97,NE,44,0.0,1.0,67,0.00,,---,0.10,142.00,VWS V14.01,2013-07-06 21:06:00,
2013-07-06 17:11:00,85.1,74.2,29.97,NE,44,0.0,1.0,70,0.00,,---,0.10,118.00,VWS V14.01,2013-07-06 21:11:00,
2013-07-06 17:16:00,83.9,73.1,29.97,NE,44,0.0,1.0,70,0.00,,---,0.10,214.00,VWS V14.01,2013-07-06 21:16:00,
2013-07-06 17:21:00,82.8,72.4,29.97,NE,44,0.0,1.0,71,0.00,,---,0.10,352.00,VWS V14.01,2013-07-06 21:21:00,
2013-07-06 17:26:00,82.6,72.7,29.98,NE,44,0.0,1.0,72,0.00,,---,0.10,575.00,VWS V14.01,2013-07-06 21:26:00,
2013-07-06 17:31:00,83.0,73.9,29.97,NE,44,0.0,1.0,74,0.00,,---,0.10,758.00,VWS V14.01,2013-07-06 21:31:00,
2013-07-06 17:37:00,83.4,74.2,29.97,NE,44,0.0,2.0,74,0.00,,---,0.10,151.00,VWS V14.01,2013-07-06 21:37:00,
2013-07-06 17:44:00,82.3,73.6,29.97,NE,43,0.0,2.0,75,0.00,,---,0.10,86.00,VWS V14.01,2013-07-06 21:44:00,
2013-07-06 17:50:00,81.4,73.1,29.98,NE,43,0.0,0.0,76,0.00,,---,0.10,176.00,VWS V14.01,2013-07-06 21:50:00,
2013-07-06 17:55:00,80.9,72.6,29.98,NE,43,0.0,0.0,76,0.00,,---,0.10,148.00,VWS V14.01,2013-07-06 21:55:00,
2013-07-06 18:01:00,80.7,72.8,29.98,NE,43,0.0,0.0,77,0.00,,---,0.10,255.00,VWS V14.01,2013-07-06 22:01:00,
2013-07-06 18:06:00,80.8,73.3,29.98,NE,43,0.0,0.0,78,0.00,,---,0.10,338.00,VWS V14.01,2013-07-06 22:06:00,
2013-07-06 18:11:00,81.2,73.7,29.98,NE,43,0.0,0.0,78,0.00,,---,0.10,271.00,VWS V14.01,2013-07-06 22:11:00,
2013-07-06 18:18:00,81.6,73.7,29.98,NE,43,0.0,0.0,77,0.00,,---,0.10,127.00,VWS V14.01,2013-07-06 22:18:00,
2013-07-06 18:24:00,82.0,72.9,29.98,NE,43,0.0,0.0,74,0.00,,---,0.10,480.00,VWS V14.01,2013-07-06 22:24:00,
2013-07-06 18:31:00,82.9,74.2,29.98,NE,42,0.0,0.0,75,0.00,,---,0.10,499.00,VWS V14.01,2013-07-06 22:31:00,
2013-07-06 18:36:00,83.5,74.8,29.98,NE,42,0.0,1.0,75,0.00,,---,0.10,70.00,VWS V14.01,2013-07-06 22:36:00,
2013-07-06 18:42:00,82.8,72.4,29.98,NE,37,0.0,2.0,71,0.00,,---,0.10,72.00,VWS V14.01,2013-07-06 22:42:00,
2013-07-06 18:48:00,82.0,72.9,29.98,NE,37,0.0,2.0,74,0.00,,---,0.10,102.00,VWS V14.01,2013-07-06 22:48:00,
2013-07-06 18:53:00,81.5,72.0,29.99,NE,37,0.0,1.0,73,0.00,,---,0.10,47.00,VWS V14.01,2013-07-06 22:53:00,
2013-07-06 18:58:00,80.5,71.8,29.99,West,279,0.0,11.0,75,0.02,,---,0.12,21.00,VWS V14.01,2013-07-06 22:58:00,
2013-07-06 19:03:00,78.7,71.6,30.00,SW,222,0.0,3.0,79,0.03,,---,0.13,14.00,VWS V14.01,2013-07-06 23:03:00,
2013-07-06 19:08:00,77.3,71.0,30.00,SW,223,0.0,3.0,81,0.03,,---,0.13,42.00,VWS V14.01,2013-07-06 23:08:00,
2013-07-06 19:14:00,76.2,70.7,30.01,SW,223,0.0,1.0,83,0.03,,---,0.13,179.00,VWS V14.01,2013-07-06 23:14:00,
2013-07-06 19:19:00,75.5,71.0,30.02,SW,231,0.0,1.0,86,0.03,,---,0.13,88.00,VWS V14.01,2013-07-06 23:19:00,
2013-07-06 19:24:00,74.9,71.1,30.02,SSE,167,0.0,3.0,88,0.03,,---,0.13,206.00,VWS V14.01,2013-07-06 23:24:00,
2013-07-06 19:29:00,74.4,70.3,30.02,South,179,0.0,1.0,87,0.03,,---,0.13,114.00,VWS V14.01,2013-07-06 23:29:00,
2013-07-06 19:34:00,73.9,70.5,30.02,SSW,194,0.0,4.0,89,0.03,,---,0.13,63.00,VWS V14.01,2013-07-06 23:34:00,
2013-07-06 19:39:00,73.4,70.0,30.02,SSW,194,0.0,1.0,89,0.03,,---,0.13,58.00,VWS V14.01,2013-07-06 23:39:00,
2013-07-06 19:45:00,72.9,69.5,30.02,WSW,252,0.0,4.0,89,0.03,,---,0.13,56.00,VWS V14.01,2013-07-06 23:45:00,
2013-07-06 19:50:00,72.5,69.4,30.03,West,272,0.0,3.0,90,0.03,,---,0.13,74.00,VWS V14.01,2013-07-06 23:50:00,
2013-07-06 19:56:00,72.3,69.5,30.03,West,266,0.0,3.0,91,0.03,,---,0.13,105.00,VWS V14.01,2013-07-06 23:56:00,
2013-07-06 20:01:00,72.2,69.4,30.03,SW,231,2.0,3.0,91,0.01,,---,0.13,56.00,VWS V14.01,2013-07-07 00:01:00,
2013-07-06 20:06:00,71.9,69.1,30.04,SW,232,2.0,4.0,91,0.01,,---,0.13,49.00,VWS V14.01,2013-07-07 00:06:00,
2013-07-06 20:12:00,71.6,68.8,30.04,West,266,2.0,3.0,91,0.00,,---,0.13,37.00,VWS V14.01,2013-07-07 00:12:00,
2013-07-06 20:17:00,71.4,68.6,30.04,West,267,0.0,3.0,91,0.00,,---,0.13,19.00,VWS V14.01,2013-07-07 00:17:00,
2013-07-06 20:23:00,71.2,68.8,30.05,West,267,0.0,0.0,92,0.00,,---,0.13,11.00,VWS V14.01,2013-07-07 00:23:00,
2013-07-06 20:28:00,71.1,68.7,30.06,West,269,0.0,2.0,92,0.00,,---,0.13,11.00,VWS V14.01,2013-07-07 00:28:00,
2013-07-06 20:33:00,71.0,68.6,30.06,West,269,0.0,1.0,92,0.00,,---,0.13,7.00,VWS V14.01,2013-07-07 00:33:00,
2013-07-06 20:38:00,70.8,68.4,30.05,West,269,0.0,1.0,92,0.00,,---,0.13,5.00,VWS V14.01,2013-07-07 00:38:00,
2013-07-06 20:43:00,70.7,68.6,30.05,West,269,0.0,0.0,93,0.00,,---,0.13,0.00,VWS V14.01,2013-07-07 00:43:00,
2013-07-06 20:48:00,70.7,68.6,30.05,West,269,0.0,0.0,93,0.00,,---,0.13,0.00,VWS V14.01,2013-07-07 00:48:00,
2013-07-06 20:54:00,70.6,68.2,30.05,West,269,0.0,0.0,92,0.00,,---,0.13,0.00,VWS V14.01,2013-07-07 00:54:00,
2013-07-06 20:59:00,70.4,68.3,30.05,West,269,0.0,0.0,93,0.00,,---,0.13,0.00,VWS V14.01,2013-07-07 00:59:00,
2013-07-06 21:04:00,70.4,68.3,30.05,West,269,0.0,0.0,93,0.00,,---,0.13,0.00,VWS V14.01,2013-07-07 01:04:00,
2013-07-06 21:09:00,70.2,68.1,30.06,West,269,0.0,0.0,93,0.00,,---,0.13,0.00,VWS V14.01,2013-07-07 01:09:00,
2013-07-06 21:14:00,70.1,68.0,30.06,West,269,0.0,0.0,93,0.00,,---,0.13,0.00,VWS V14.01,2013-07-07 01:14:00,
2013-07-06 21:20:00,70.0,67.9,30.06,West,269,0.0,0.0,93,0.00,,---,0.13,0.00,VWS V14.01,2013-07-07 01:20:00,
2013-07-06 21:25:00,69.9,68.1,30.07,West,269,0.0,1.0,94,0.00,,---,0.13,0.00,VWS V14.01,2013-07-07 01:25:00,
2013-07-06 21:30:00,69.8,68.0,30.06,West,269,0.0,0.0,94,0.00,,---,0.13,0.00,VWS V14.01,2013-07-07 01:30:00,
2013-07-06 21:35:00,69.7,68.2,30.06,West,269,0.0,0.0,95,0.00,,---,0.13,0.00,VWS V14.01,2013-07-07 01:35:00,
2013-07-06 21:42:00,69.7,68.2,30.07,West,269,0.0,0.0,95,0.00,,---,0.13,0.00,VWS V14.01,2013-07-07 01:42:00,
2013-07-06 21:47:00,69.7,68.2,30.07,West,269,0.0,0.0,95,0.00,,---,0.13,0.00,VWS V14.01,2013-07-07 01:47:00,
2013-07-06 21:52:00,69.7,68.2,30.06,West,269,0.0,0.0,95,0.00,,---,0.13,0.00,VWS V14.01,2013-07-07 01:52:00,
2013-07-06 21:58:00,69.7,68.2,30.06,West,269,0.0,0.0,95,0.00,,---,0.13,0.00,VWS V14.01,2013-07-07 01:58:00,
2013-07-06 22:04:00,69.4,67.9,30.08,West,269,0.0,0.0,95,0.00,,---,0.13,0.00,VWS V14.01,2013-07-07 02:04:00,
2013-07-06 22:10:00,69.4,67.9,30.08,West,269,0.0,0.0,95,0.00,,---,0.13,0.00,VWS V14.01,2013-07-07 02:10:00,
2013-07-06 22:15:00,69.3,67.8,30.08,West,269,0.0,0.0,95,0.00,,---,0.13,0.00,VWS V14.01,2013-07-07 02:15:00,
2013-07-06 22:20:00,69.3,67.8,30.07,West,269,0.0,0.0,95,0.00,,---,0.13,0.00,VWS V14.01,2013-07-07 02:20:00,
2013-07-06 22:26:00,69.2,68.0,30.08,West,269,0.0,0.0,96,0.00,,---,0.13,0.00,VWS V14.01,2013-07-07 02:26:00,
2013-07-06 22:31:00,69.2,68.0,30.07,West,269,0.0,0.0,96,0.00,,---,0.13,0.00,VWS V14.01,2013-07-07 02:31:00,
2013-07-06 22:36:00,69.0,67.8,30.07,West,269,0.0,0.0,96,0.00,,---,0.13,0.00,VWS V14.01,2013-07-07 02:36:00,
2013-07-06 22:41:00,68.8,67.3,30.07,West,269,0.0,0.0,95,0.00,,---,0.13,0.00,VWS V14.01,2013-07-07 02:41:00,
2013-07-06 22:47:00,68.7,67.2,30.07,West,269,0.0,0.0,95,0.00,,---,0.13,0.00,VWS V14.01,2013-07-07 02:47:00,
2013-07-06 22:53:00,68.6,67.1,30.06,West,269,0.0,0.0,95,0.00,,---,0.13,0.00,VWS V14.01,2013-07-07 02:53:00,
2013-07-06 22:58:00,68.6,67.4,30.06,West,269,0.0,0.0,96,0.00,,---,0.13,0.00,VWS V14.01,2013-07-07 02:58:00,
2013-07-06 23:04:00,68.6,67.4,30.07,West,269,0.0,0.0,96,0.00,,---,0.13,0.00,VWS V14.01,2013-07-07 03:04:00,
2013-07-06 23:10:00,68.5,67.3,30.07,West,269,0.0,0.0,96,0.00,,---,0.13,0.00,VWS V14.01,2013-07-07 03:10:00,
2013-07-06 23:15:00,68.6,67.4,30.07,West,269,0.0,0.0,96,0.00,,---,0.13,0.00,VWS V14.01,2013-07-07 03:15:00,
2013-07-06 23:21:00,68.6,67.4,30.07,West,269,0.0,0.0,96,0.00,,---,0.13,0.00,VWS V14.01,2013-07-07 03:21:00,
2013-07-06 23:28:00,68.5,67.3,30.07,West,269,0.0,0.0,96,0.00,,---,0.13,0.00,VWS V14.01,2013-07-07 03:28:00,
2013-07-06 23:33:00,68.5,67.3,30.07,West,269,0.0,0.0,96,0.00,,---,0.13,0.00,VWS V14.01,2013-07-07 03:33:00,
2013-07-06 23:38:00,68.6,67.4,30.08,West,269,0.0,0.0,96,0.00,,---,0.13,0.00,VWS V14.01,2013-07-07 03:38:00,
2013-07-06 23:43:00,68.6,67.7,30.08,West,269,0.0,0.0,97,0.00,,---,0.13,0.00,VWS V14.01,2013-07-07 03:43:00,
2013-07-06 23:49:00,68.5,67.6,30.08,West,269,0.0,0.0,97,0.00,,---,0.13,0.00,VWS V14.01,2013-07-07 03:49:00,
2013-07-06 23:54:00,68.5,67.6,30.08,West,269,0.0,0.0,97,0.00,,---,0.13,0.00,VWS V14.01,2013-07-07 03:54:00,